PWSweather.com
Personal Weather Stations
Station Observations
MAHIABEACH
Mahia Beach, Mahia Peninsula Hawkes Bay -NZ 4108

Mahia BeachMahia Peninsula Hawkes Bay -NZ 4108

Lat: -39.08872, Lon: 177.878209

Elevation: 72

Station Type: WS2083

http://wairoa.net/mahia/index.htm

Latest ConditionsUpdated 1:45:05 PM GMT+12:12 Friday, Jul 29, 2016
Currently Today's Max Today's Min Today's Average
Temperature 58.6°F14.8°C 58.6°F14.8°C 51.4°F10.8°C 54.3°F12.4°C
Dew Point 43.0°F6.1°C 43.0°F6.1°C 31.6°F-0.2°C 36.5°F2.5°C
Winds 11.3 mph SE18.2 kmh SE 20.3 mph SSE32.7 kmh SSE - 13.1 mph 21.1 kmh
Wind Gusts 18.3 mph29.5 kmh 39.6 mph63.7 kmh - -
Humidity 56% 60% 44% 51%
Pressure 29.45 in997.3 mb 29.46 in997.6 mb 29.39 in995.3 mb -
Precipitation - 0.21 in5.3 mm - -
Hour Temp Dew Point Humidity Winds Wind Gusts Pressure Precip Precip Rate Daily Precip Total
01:45 PM 58.6°F14.8°C 43.0°F6.1°C 56% 11.3 mph SE18.2 kmh SE 18.3 mph29.5 kmh 29.45 in997.3 mb 0.00 in0.0 mm 0.00 in0.0 mm 0.21 in5.3 mm
01:30 PM 58.6°F14.8°C 42.5°F5.8°C 55% 11.3 mph SE18.2 kmh SE 23.5 mph37.8 kmh 29.45 in997.3 mb 0.00 in0.0 mm 0.00 in0.0 mm 0.21 in5.3 mm
01:15 PM 58.5°F14.7°C 41.9°F5.5°C 54% 12.1 mph SE19.5 kmh SE 28.2 mph45.4 kmh 29.44 in997.0 mb 0.00 in0.0 mm 0.00 in0.0 mm 0.21 in5.3 mm
01:00 PM 58.5°F14.7°C 41.9°F5.5°C 54% 12.8 mph SE20.6 kmh SE 24.4 mph39.3 kmh 29.44 in997.0 mb 0.00 in0.0 mm 0.00 in0.0 mm 0.21 in5.3 mm
12:45 PM 57.7°F14.3°C 42.2°F5.7°C 56% 11.9 mph SE19.2 kmh SE 19.7 mph31.7 kmh 29.43 in996.6 mb 0.00 in0.0 mm 0.00 in0.0 mm 0.21 in5.3 mm
12:30 PM 57.9°F14.4°C 40.9°F4.9°C 53% 10.9 mph SSE17.5 kmh SSE 19.7 mph31.7 kmh 29.43 in996.6 mb 0.00 in0.0 mm 0.00 in0.0 mm 0.21 in5.3 mm
12:15 PM 57.4°F14.1°C 40.4°F4.7°C 53% 11.7 mph SE18.8 kmh SE 24.4 mph39.3 kmh 29.44 in997.0 mb 0.00 in0.0 mm 0.00 in0.0 mm 0.21 in5.3 mm
12:00 PM 56.8°F13.8°C 40.4°F4.7°C 54% 13.7 mph SSE22.0 kmh SSE 24.4 mph39.3 kmh 29.43 in996.6 mb 0.00 in0.0 mm 0.00 in0.0 mm 0.21 in5.3 mm
11:45 AM 57.4°F14.1°C 39.4°F4.1°C 51% 9.7 mph S15.6 kmh S 19.0 mph30.6 kmh 29.44 in997.0 mb 0.00 in0.0 mm 0.00 in0.0 mm 0.21 in5.3 mm
11:30 AM 56.3°F13.5°C 39.4°F4.1°C 53% 10.8 mph SSE17.4 kmh SSE 17.4 mph28.0 kmh 29.45 in997.3 mb 0.00 in0.0 mm 0.00 in0.0 mm 0.21 in5.3 mm
11:15 AM 56.7°F13.7°C 39.7°F4.3°C 53% 12.1 mph SE19.5 kmh SE 28.9 mph46.5 kmh 29.46 in997.6 mb 0.00 in0.0 mm 0.00 in0.0 mm 0.21 in5.3 mm
11:00 AM 55.9°F13.3°C 39.5°F4.2°C 54% 13.4 mph SE21.6 kmh SE 23.5 mph37.8 kmh 29.45 in997.3 mb 0.00 in0.0 mm 0.00 in0.0 mm 0.21 in5.3 mm
10:45 AM 55.0°F12.8°C 37.3°F2.9°C 51% 11.8 mph SE19.0 kmh SE 22.1 mph35.6 kmh 29.45 in997.3 mb 0.00 in0.0 mm 0.00 in0.0 mm 0.21 in5.3 mm
10:30 AM 55.6°F13.1°C 38.7°F3.7°C 53% 12.0 mph SSE19.3 kmh SSE 22.1 mph35.6 kmh 29.44 in997.0 mb 0.00 in0.0 mm 0.00 in0.0 mm 0.21 in5.3 mm
10:15 AM 55.0°F12.8°C 38.7°F3.7°C 54% 9.9 mph SE15.9 kmh SE 19.7 mph31.7 kmh 29.44 in997.0 mb 0.00 in0.0 mm 0.00 in0.0 mm 0.21 in5.3 mm
10:00 AM 53.2°F11.8°C 39.7°F4.3°C 60% 10.6 mph S17.1 kmh S 19.7 mph31.7 kmh 29.44 in997.0 mb 0.00 in0.0 mm 0.00 in0.0 mm 0.21 in5.3 mm
09:45 AM 54.1°F12.3°C 38.8°F3.8°C 56% 13.9 mph SSE22.4 kmh SSE 23.5 mph37.8 kmh 29.46 in997.6 mb 0.00 in0.0 mm 0.00 in0.0 mm 0.21 in5.3 mm
09:30 AM 54.7°F12.6°C 37.9°F3.3°C 53% 12.4 mph S20.0 kmh S 22.8 mph36.7 kmh 29.45 in997.3 mb 0.00 in0.0 mm 0.00 in0.0 mm 0.21 in5.3 mm
09:15 AM 55.0°F12.8°C 37.3°F2.9°C 51% 13.5 mph SSE21.7 kmh SSE 28.2 mph45.4 kmh 29.45 in997.3 mb 0.00 in0.0 mm 0.00 in0.0 mm 0.21 in5.3 mm
09:00 AM 55.2°F12.9°C 36.4°F2.4°C 49% 12.5 mph S20.1 kmh S 21.3 mph34.3 kmh 29.45 in997.3 mb 0.00 in0.0 mm 0.00 in0.0 mm 0.21 in5.3 mm
08:45 AM 55.4°F13.0°C 35.5°F1.9°C 47% 10.8 mph SSE17.4 kmh SSE 21.3 mph34.3 kmh 29.45 in997.3 mb 0.00 in0.0 mm 0.00 in0.0 mm 0.21 in5.3 mm
08:30 AM 55.2°F12.9°C 35.9°F2.2°C 48% 9.5 mph S15.3 kmh S 20.6 mph33.2 kmh 29.45 in997.3 mb 0.00 in0.0 mm 0.00 in0.0 mm 0.21 in5.3 mm
08:15 AM 55.6°F13.1°C 34.0°F1.1°C 44% 14.9 mph SSE24.0 kmh SSE 25.1 mph40.4 kmh 29.44 in997.0 mb 0.00 in0.0 mm 0.00 in0.0 mm 0.21 in5.3 mm
08:00 AM 55.2°F12.9°C 34.3°F1.3°C 45% 13.0 mph S20.9 kmh S 25.9 mph41.7 kmh 29.43 in996.6 mb 0.00 in0.0 mm 0.00 in0.0 mm 0.21 in5.3 mm
07:45 AM 53.2°F11.8°C 33.0°F0.6°C 46% 3.3 mph SE5.3 kmh SE 7.6 mph12.2 kmh 29.42 in996.3 mb 0.00 in0.0 mm 0.00 in0.0 mm 0.21 in5.3 mm
07:30 AM 53.1°F11.7°C 34.4°F1.3°C 49% 5.6 mph S9.0 kmh S 13.0 mph20.9 kmh 29.43 in996.6 mb 0.00 in0.0 mm 0.00 in0.0 mm 0.21 in5.3 mm
07:15 AM 52.7°F11.5°C 34.6°F1.4°C 50% 4.8 mph SSE7.7 kmh SSE 9.2 mph14.8 kmh 29.43 in996.6 mb 0.00 in0.0 mm 0.00 in0.0 mm 0.21 in5.3 mm
07:00 AM 53.4°F11.9°C 33.7°F0.9°C 47% 11.9 mph S19.2 kmh S 24.4 mph39.3 kmh 29.43 in996.6 mb 0.01 in0.3 mm 0.00 in0.0 mm 0.21 in5.3 mm
06:45 AM 52.7°F11.5°C 35.1°F1.7°C 51% 11.2 mph SSE18.0 kmh SSE 19.0 mph30.6 kmh 29.43 in996.6 mb 0.01 in0.3 mm 0.00 in0.0 mm 0.21 in5.3 mm
06:30 AM 52.5°F11.4°C 34.4°F1.3°C 50% 9.6 mph SSE15.4 kmh SSE 15.9 mph25.6 kmh 29.43 in996.6 mb 0.01 in0.3 mm 0.00 in0.0 mm 0.21 in5.3 mm
06:15 AM 52.7°F11.5°C 34.1°F1.2°C 49% 12.6 mph SSE20.3 kmh SSE 25.1 mph40.4 kmh 29.42 in996.3 mb 0.04 in1.0 mm 0.00 in0.0 mm 0.21 in5.3 mm
06:00 AM 52.7°F11.5°C 34.1°F1.2°C 49% 14.4 mph S23.2 kmh S 28.2 mph45.4 kmh 29.41 in995.9 mb 0.06 in1.5 mm 0.00 in0.0 mm 0.20 in5.1 mm
05:45 AM 52.9°F11.6°C 33.2°F0.7°C 47% 15.6 mph S25.1 kmh S 28.9 mph46.5 kmh 29.41 in995.9 mb 0.07 in1.8 mm 0.00 in0.0 mm 0.20 in5.1 mm
05:30 AM 52.7°F11.5°C 34.1°F1.2°C 49% 15.6 mph S25.1 kmh S 32.7 mph52.6 kmh 29.41 in995.9 mb 0.07 in1.8 mm 0.08 in2.0 mm 0.20 in5.1 mm
05:15 AM 52.7°F11.5°C 34.1°F1.2°C 49% 16.1 mph SSE25.9 kmh SSE 33.6 mph54.1 kmh 29.41 in995.9 mb 0.05 in1.3 mm 0.16 in4.1 mm 0.18 in4.6 mm
05:00 AM 52.9°F11.6°C 31.6°F-0.2°C 44% 16.9 mph SSE27.2 kmh SSE 32.7 mph52.6 kmh 29.42 in996.3 mb 0.01 in0.3 mm 0.01 in0.3 mm 0.14 in3.6 mm
04:45 AM 52.3°F11.3°C 32.2°F0.1°C 46% 13.5 mph SE21.7 kmh SE 25.9 mph41.7 kmh 29.41 in995.9 mb 0.00 in0.0 mm 0.00 in0.0 mm 0.13 in3.3 mm
04:30 AM 51.8°F11.0°C 33.3°F0.7°C 49% 14.1 mph SSE22.7 kmh SSE 24.4 mph39.3 kmh 29.40 in995.6 mb 0.00 in0.0 mm 0.00 in0.0 mm 0.13 in3.3 mm
04:15 AM 51.4°F10.8°C 33.9°F1.1°C 51% 12.7 mph SSE20.4 kmh SSE 24.4 mph39.3 kmh 29.40 in995.6 mb 0.00 in0.0 mm 0.00 in0.0 mm 0.13 in3.3 mm
04:00 AM 51.4°F10.8°C 34.4°F1.3°C 52% 14.4 mph SSE23.2 kmh SSE 24.4 mph39.3 kmh 29.41 in995.9 mb 0.04 in1.0 mm 0.00 in0.0 mm 0.13 in3.3 mm
03:45 AM 51.6°F10.9°C 35.1°F1.7°C 53% 16.4 mph SSE26.4 kmh SSE 28.9 mph46.5 kmh 29.41 in995.9 mb 0.06 in1.5 mm 0.00 in0.0 mm 0.13 in3.3 mm
03:30 AM 51.6°F10.9°C 36.0°F2.2°C 55% 16.9 mph S27.2 kmh S 31.1 mph50.1 kmh 29.39 in995.3 mb 0.07 in1.8 mm 0.00 in0.0 mm 0.13 in3.3 mm
03:15 AM 52.3°F11.3°C 35.2°F1.8°C 52% 20.3 mph SSE32.7 kmh SSE 39.6 mph63.7 kmh 29.40 in995.6 mb 0.08 in2.0 mm 0.00 in0.0 mm 0.13 in3.3 mm
03:00 AM 52.5°F11.4°C 35.4°F1.9°C 52% 18.4 mph S29.6 kmh S 33.6 mph54.1 kmh 29.41 in995.9 mb 0.08 in2.0 mm 0.01 in0.3 mm 0.09 in2.3 mm
02:45 AM 52.5°F11.4°C 35.4°F1.9°C 52% 19.0 mph SSE30.6 kmh SSE 38.7 mph62.3 kmh 29.39 in995.3 mb 0.07 in1.8 mm 0.04 in1.0 mm 0.07 in1.8 mm
02:30 AM 52.7°F11.5°C 36.1°F2.3°C 53% 19.0 mph SSE30.6 kmh SSE 38.0 mph61.2 kmh 29.40 in995.6 mb 0.06 in1.5 mm 0.08 in2.0 mm 0.06 in1.5 mm
02:15 AM 52.5°F11.4°C 36.4°F2.4°C 54% 19.9 mph S32.0 kmh S 32.7 mph52.6 kmh 29.39 in995.3 mb 0.04 in1.0 mm 0.12 in3.0 mm 0.04 in1.0 mm
02:00 AM 53.1°F11.7°C 36.9°F2.7°C 54% 18.8 mph S30.3 kmh S 33.6 mph54.1 kmh 29.40 in995.6 mb 0.01 in0.3 mm 0.01 in0.3 mm 0.01 in0.3 mm
01:45 AM 53.4°F11.9°C 35.3°F1.8°C 50% 12.8 mph S20.6 kmh S 28.2 mph45.4 kmh 29.39 in995.3 mb 0.00 in0.0 mm 0.00 in0.0 mm 0.00 in0.0 mm
01:30 AM 53.6°F12.0°C 34.9°F1.6°C 49% 12.1 mph S19.5 kmh S 21.3 mph34.3 kmh 29.39 in995.3 mb 0.00 in0.0 mm 0.00 in0.0 mm 0.00 in0.0 mm
01:15 AM 54.0°F12.2°C 34.7°F1.5°C 48% 12.3 mph S19.8 kmh S 20.6 mph33.2 kmh 29.39 in995.3 mb 0.00 in0.0 mm 0.00 in0.0 mm 0.00 in0.0 mm
01:00 AM 54.0°F12.2°C 34.7°F1.5°C 48% 12.7 mph S20.4 kmh S 22.8 mph36.7 kmh 29.39 in995.3 mb 0.00 in0.0 mm 0.00 in0.0 mm 0.00 in0.0 mm
12:45 AM 54.1°F12.3°C 35.4°F1.9°C 49% 12.9 mph SSE20.8 kmh SSE 24.4 mph39.3 kmh 29.39 in995.3 mb 0.00 in0.0 mm 0.00 in0.0 mm 0.00 in0.0 mm
12:30 AM 54.5°F12.5°C 35.2°F1.8°C 48% 13.4 mph SSE21.6 kmh SSE 23.5 mph37.8 kmh 29.39 in995.3 mb 0.00 in0.0 mm 0.00 in0.0 mm 0.00 in0.0 mm
12:15 AM 54.7°F12.6°C 35.4°F1.9°C 48% 13.7 mph SE22.0 kmh SE 25.1 mph40.4 kmh 29.40 in995.6 mb 0.00 in0.0 mm 0.00 in0.0 mm 0.00 in0.0 mm
12:00 AM 54.9°F12.7°C 35.6°F2.0°C 48% 16.2 mph SSE26.1 kmh SSE 29.8 mph48.0 kmh 29.39 in995.3 mb 0.00 in0.0 mm 0.00 in0.0 mm 0.00 in0.0 mm